createdAt,value
2023-05-07T00:01:00.723Z,99460.65
2023-05-07T00:03:29.038Z,99457.77
2023-05-07T00:05:57.340Z,99455.80
2023-05-07T00:08:25.428Z,99456.03
2023-05-07T00:10:54.021Z,99456.83
2023-05-07T00:13:22.117Z,99455.91
2023-05-07T00:15:50.276Z,99457.49
2023-05-07T00:18:22.077Z,99457.08
2023-05-07T00:20:49.965Z,99453.10
2023-05-07T00:23:17.994Z,99452.89
2023-05-07T00:25:45.990Z,99452.15
2023-05-07T00:28:14.003Z,99455.87
2023-05-07T00:30:42.024Z,99458.56
2023-05-07T00:33:10.238Z,99460.51
2023-05-07T00:35:38.248Z,99461.08
2023-05-07T00:38:06.296Z,99464.23
2023-05-07T00:40:34.427Z,99467.88
2023-05-07T00:43:02.332Z,99473.08
2023-05-07T00:45:30.549Z,99468.73
2023-05-07T00:48:01.648Z,99471.73
2023-05-07T00:50:31.098Z,99471.57
2023-05-07T00:52:59.650Z,99474.30
2023-05-07T00:55:27.758Z,99471.94
2023-05-07T00:57:55.824Z,99473.04
2023-05-07T01:00:23.826Z,99474.48
2023-05-07T01:02:51.899Z,99477.31
2023-05-07T01:05:22.188Z,99476.91
2023-05-07T01:07:52.257Z,99477.61
2023-05-07T01:10:20.370Z,99476.57
2023-05-07T01:12:49.734Z,99474.19
2023-05-07T01:15:18.825Z,99477.48
2023-05-07T01:17:47.916Z,99474.39
2023-05-07T01:20:31.127Z,99473.23
2023-05-07T01:23:01.179Z,99472.67
2023-05-07T01:25:29.867Z,99472.55
2023-05-07T01:28:03.537Z,99472.09
2023-05-07T01:30:35.767Z,99471.71
2023-05-07T01:33:14.538Z,99475.80
2023-05-07T01:35:46.559Z,99475.50
2023-05-07T01:38:14.981Z,99476.43
2023-05-07T01:40:43.801Z,99479.48
2023-05-07T01:43:12.351Z,99485.88
2023-05-07T01:45:41.705Z,99486.14
2023-05-07T01:48:12.494Z,99487.06
2023-05-07T01:50:40.583Z,99488.78
2023-05-07T01:53:08.682Z,99489.89
2023-05-07T01:55:37.944Z,99493.23
2023-05-07T01:58:06.225Z,99495.99
2023-05-07T02:00:34.620Z,99496.79
2023-05-07T02:03:02.904Z,99494.96
2023-05-07T02:05:44.052Z,99492.71
2023-05-07T02:08:19.083Z,99493.92
2023-05-07T02:10:47.078Z,99496.61
2023-05-07T02:13:15.034Z,99497.27
2023-05-07T02:15:43.213Z,99505.04
2023-05-07T02:18:11.454Z,99510.17
2023-05-07T02:20:39.488Z,99513.93
2023-05-07T02:23:07.631Z,99510.41
2023-05-07T02:25:35.666Z,99508.79
2023-05-07T02:28:03.665Z,99509.34
2023-05-07T02:30:41.368Z,99510.94
2023-05-07T02:33:10.222Z,99509.62
2023-05-07T02:35:38.301Z,99510.34
2023-05-07T02:38:06.727Z,99513.33
2023-05-07T02:40:35.115Z,99508.88
2023-05-07T02:43:03.067Z,99511.21
2023-05-07T02:45:31.136Z,99515.21
2023-05-07T02:47:59.418Z,99516.00
2023-05-07T02:50:28.163Z,99517.97
2023-05-07T02:52:56.345Z,99518.19
2023-05-07T02:55:24.380Z,99517.93
2023-05-07T02:57:52.355Z,99517.95
2023-05-07T03:00:21.855Z,99520.55
2023-05-07T03:03:13.308Z,99514.54
2023-05-07T03:05:41.742Z,99517.42
2023-05-07T03:08:10.543Z,99517.26
2023-05-07T03:10:38.626Z,99518.48
2023-05-07T03:13:06.844Z,99521.87
2023-05-07T03:15:34.967Z,99524.75
2023-05-07T03:18:03.130Z,99523.88
2023-05-07T03:20:31.395Z,99524.39
2023-05-07T03:22:59.698Z,99521.92
2023-05-07T03:25:27.619Z,99524.81
2023-05-07T03:27:55.552Z,99527.89
2023-05-07T03:30:25.528Z,99527.27
2023-05-07T03:32:53.525Z,99527.20
2023-05-07T03:35:21.579Z,99531.52
2023-05-07T03:37:49.640Z,99535.96
2023-05-07T03:40:17.843Z,99540.94
2023-05-07T03:42:49.473Z,99549.22
2023-05-07T03:45:17.979Z,99550.43
2023-05-07T03:47:48.938Z,99557.47
2023-05-07T03:50:20.740Z,99554.07
2023-05-07T03:52:48.647Z,99556.27
2023-05-07T03:55:16.989Z,99559.47
2023-05-07T03:57:49.430Z,99558.98
2023-05-07T04:00:17.767Z,99559.50
2023-05-07T04:02:48.599Z,99562.77
2023-05-07T04:05:19.323Z,99560.30
2023-05-07T04:07:48.447Z,99561.86
2023-05-07T04:10:17.510Z,99569.53
2023-05-07T04:12:46.304Z,99574.66
2023-05-07T04:15:18.445Z,99576.96
2023-05-07T04:17:46.864Z,99582.45
2023-05-07T04:20:17.948Z,99582.45
2023-05-07T04:22:48.015Z,99586.84
2023-05-07T04:25:17.436Z,99587.73
2023-05-07T04:27:46.353Z,99592.40
2023-05-07T04:30:14.877Z,99596.98
2023-05-07T04:32:43.091Z,99596.98
2023-05-07T04:35:11.201Z,99600.20
2023-05-07T04:37:40.062Z,99605.44
2023-05-07T04:40:08.934Z,99602.69
2023-05-07T04:42:37.073Z,99605.27
2023-05-07T04:45:06.264Z,99606.02
2023-05-07T04:47:35.350Z,99608.50
2023-05-07T04:50:03.983Z,99610.84
2023-05-07T04:52:32.395Z,99613.56
2023-05-07T04:55:01.662Z,99617.03
2023-05-07T04:57:31.993Z,99615.39
2023-05-07T04:59:59.949Z,99617.81
2023-05-07T05:02:28.041Z,99623.25
2023-05-07T05:04:56.213Z,99628.36
2023-05-07T05:07:24.858Z,99626.59
2023-05-07T05:09:53.820Z,99625.21
2023-05-07T05:12:21.831Z,99626.09
2023-05-07T05:14:50.729Z,99628.79
2023-05-07T05:17:19.147Z,99629.14
2023-05-07T05:19:47.785Z,99631.08
2023-05-07T05:22:16.301Z,99629.04
2023-05-07T05:24:44.307Z,99632.58
2023-05-07T05:27:12.240Z,99633.99
2023-05-07T05:29:40.298Z,99637.52
2023-05-07T05:32:08.599Z,99641.52
2023-05-07T05:34:36.645Z,99641.39
2023-05-07T05:37:05.098Z,99645.54
2023-05-07T05:39:33.151Z,99650.48
2023-05-07T05:42:01.204Z,99652.30
2023-05-07T05:44:29.304Z,99655.48
2023-05-07T05:47:00.286Z,99654.98
2023-05-07T05:49:28.798Z,99656.20
2023-05-07T05:51:57.032Z,99664.18
2023-05-07T05:54:26.411Z,99664.65
2023-05-07T05:56:54.370Z,99669.18
2023-05-07T05:59:22.500Z,99674.89
2023-05-07T06:01:50.658Z,99672.83
2023-05-07T06:04:18.567Z,99676.23
2023-05-07T06:06:46.556Z,99677.23
2023-05-07T06:09:14.596Z,99677.84
2023-05-07T06:11:44.429Z,99679.59
2023-05-07T06:14:13.083Z,99683.41
2023-05-07T06:16:41.240Z,99684.95
2023-05-07T06:19:09.537Z,99687.34
2023-05-07T06:21:40.319Z,99691.27
2023-05-07T06:24:08.737Z,99691.19
2023-05-07T06:26:38.834Z,99689.39
2023-05-07T06:29:07.320Z,99691.63
2023-05-07T06:31:35.921Z,99687.55
2023-05-07T06:34:06.590Z,99688.95
2023-05-07T06:36:39.246Z,99693.80
2023-05-07T06:39:27.430Z,99695.34
2023-05-07T06:41:55.803Z,99700.73
2023-05-07T06:44:27.615Z,99701.66
2023-05-07T06:47:06.449Z,99709.95
2023-05-07T06:49:35.422Z,99708.02
2023-05-07T06:52:03.403Z,99711.30
2023-05-07T06:54:32.066Z,99716.66
2023-05-07T06:57:00.092Z,99721.21
2023-05-07T06:59:28.689Z,99722.05
2023-05-07T07:01:56.851Z,99725.95
2023-05-07T07:04:26.342Z,99731.61
2023-05-07T07:07:01.147Z,99730.37
2023-05-07T07:09:30.102Z,99728.59
2023-05-07T07:11:58.973Z,99730.52
2023-05-07T07:14:27.207Z,99735.71
2023-05-07T07:16:55.509Z,99741.19
2023-05-07T07:19:23.718Z,99743.14
2023-05-07T07:21:53.280Z,99742.45
2023-05-07T07:24:22.496Z,99739.50
2023-05-07T07:26:56.406Z,99738.02
2023-05-07T07:29:27.643Z,99741.38
2023-05-07T07:31:55.858Z,99744.59
2023-05-07T07:34:24.094Z,99742.70
2023-05-07T07:36:52.505Z,99740.34
2023-05-07T07:39:20.714Z,99742.27
2023-05-07T07:41:51.384Z,99742.85
2023-05-07T07:44:19.865Z,99745.60
2023-05-07T07:46:51.865Z,99744.80
2023-05-07T07:49:20.430Z,99747.14
2023-05-07T07:51:48.930Z,99752.73
2023-05-07T07:54:17.924Z,99758.56
2023-05-07T07:56:46.305Z,99760.52
2023-05-07T07:59:18.716Z,99763.70
2023-05-07T08:01:47.108Z,99769.42
2023-05-07T08:04:15.917Z,99776.20
2023-05-07T08:06:44.354Z,99772.88
2023-05-07T08:09:12.693Z,99768.98
2023-05-07T08:11:41.959Z,99772.30
2023-05-07T08:14:10.586Z,99772.45
2023-05-07T08:16:38.736Z,99776.85
2023-05-07T08:19:06.696Z,99775.77
2023-05-07T08:21:35.892Z,99773.02
2023-05-07T08:24:04.496Z,99775.26
2023-05-07T08:26:32.411Z,99775.51
2023-05-07T08:29:00.408Z,99778.59
2023-05-07T08:31:28.340Z,99781.09
2023-05-07T08:33:57.046Z,99785.10
2023-05-07T08:36:25.565Z,99786.05
2023-05-07T08:38:53.945Z,99788.55
2023-05-07T08:41:22.788Z,99789.42
2023-05-07T08:43:51.966Z,99786.41
2023-05-07T08:46:21.920Z,99781.89
2023-05-07T08:48:51.046Z,99780.70
2023-05-07T08:51:21.320Z,99781.78
2023-05-07T08:53:51.062Z,99778.05
2023-05-07T08:56:24.813Z,99775.80
2023-05-07T08:58:57.542Z,99778.88
2023-05-07T09:01:26.462Z,99779.29
2023-05-07T09:03:54.976Z,99778.55
2023-05-07T09:06:23.746Z,99772.61
2023-05-07T09:08:54.679Z,99776.85
2023-05-07T09:11:26.338Z,99778.52
2023-05-07T09:13:57.163Z,99778.33
2023-05-07T09:16:26.570Z,99781.20
2023-05-07T09:18:55.776Z,99790.96
2023-05-07T09:21:24.169Z,99795.59
2023-05-07T09:23:56.256Z,99800.48
2023-05-07T09:26:29.356Z,99800.65
2023-05-07T09:28:57.547Z,99808.04
2023-05-07T09:31:26.187Z,99813.20
2023-05-07T09:33:56.970Z,99815.76
2023-05-07T09:36:26.250Z,99816.73
2023-05-07T09:38:54.441Z,99824.11
2023-05-07T09:41:22.469Z,99828.17
2023-05-07T09:43:57.363Z,99834.64
2023-05-07T09:46:34.553Z,99836.55
2023-05-07T09:49:11.251Z,99840.31
2023-05-07T09:51:49.215Z,99842.73
2023-05-07T09:54:19.309Z,99848.35
2023-05-07T09:56:50.151Z,99851.71
2023-05-07T09:59:19.728Z,99849.20
2023-05-07T10:01:49.448Z,99846.23
2023-05-07T10:04:18.617Z,99841.73
2023-05-07T10:06:47.740Z,99851.89
2023-05-07T10:09:16.350Z,99854.40
2023-05-07T10:11:44.815Z,99852.52
2023-05-07T10:14:13.364Z,99851.35
2023-05-07T10:16:42.489Z,99851.85
2023-05-07T10:19:13.708Z,99852.89
2023-05-07T10:21:58.023Z,99855.48
2023-05-07T10:24:30.155Z,99855.82
2023-05-07T10:27:00.501Z,99853.80
2023-05-07T10:29:28.518Z,99855.80
2023-05-07T10:32:11.358Z,99857.02
2023-05-07T10:34:43.054Z,99860.49
2023-05-07T10:37:12.120Z,99860.92
2023-05-07T10:39:40.313Z,99862.63
2023-05-07T10:42:12.074Z,99857.70
2023-05-07T10:44:41.707Z,99858.52
2023-05-07T10:47:19.738Z,99861.13
2023-05-07T10:49:49.863Z,99863.20
2023-05-07T10:52:25.583Z,99858.95
2023-05-07T10:55:19.995Z,99860.49
2023-05-07T10:58:32.528Z,99863.98
2023-05-07T11:01:55.353Z,99874.77
2023-05-07T11:04:39.779Z,99879.94
2023-05-07T11:07:29.233Z,99878.80
2023-05-07T11:10:05.843Z,99883.46
2023-05-07T11:12:57.162Z,99886.85
2023-05-07T11:15:39.022Z,99887.38
2023-05-07T11:18:14.770Z,99892.05
2023-05-07T11:20:45.941Z,99893.23
2023-05-07T11:23:35.342Z,99894.95
2023-05-07T11:26:19.269Z,99895.62
2023-05-07T11:28:47.979Z,99898.37
2023-05-07T11:31:24.002Z,99896.52
2023-05-07T11:33:54.152Z,99894.04
2023-05-07T11:36:24.289Z,99889.44
2023-05-07T11:38:54.195Z,99890.91
2023-05-07T11:41:23.072Z,99889.34
2023-05-07T11:43:58.491Z,99890.91
2023-05-07T11:46:28.494Z,99888.46
2023-05-07T11:48:57.754Z,99888.15
2023-05-07T11:51:27.292Z,99890.72
2023-05-07T11:53:55.332Z,99890.26
2023-05-07T11:56:23.298Z,99892.41
2023-05-07T11:58:53.051Z,99892.85
2023-05-07T12:01:21.117Z,99895.00
2023-05-07T12:03:49.148Z,99901.10
2023-05-07T12:06:18.902Z,99905.15
2023-05-07T12:08:48.361Z,99906.27
2023-05-07T12:11:22.802Z,99906.37
2023-05-07T12:13:50.892Z,99906.41
2023-05-07T12:16:20.080Z,99904.20
2023-05-07T12:18:48.788Z,99907.27
2023-05-07T12:21:18.452Z,99905.52
2023-05-07T12:23:46.674Z,99902.81
2023-05-07T12:26:14.560Z,99903.97
2023-05-07T12:28:42.527Z,99902.23
2023-05-07T12:31:10.588Z,99903.74
2023-05-07T12:33:38.641Z,99907.69
2023-05-07T12:36:08.663Z,99909.41
2023-05-07T12:38:40.983Z,99912.54
2023-05-07T12:41:11.179Z,99914.80
2023-05-07T12:43:39.749Z,99911.23
2023-05-07T12:46:09.064Z,99913.59
2023-05-07T12:48:44.309Z,99914.08
2023-05-07T12:51:14.521Z,99919.57
2023-05-07T12:53:43.809Z,99918.83
2023-05-07T12:56:11.849Z,99918.62
2023-05-07T12:58:39.832Z,99917.10
2023-05-07T13:01:10.788Z,99921.33
2023-05-07T13:03:39.855Z,99923.86
2023-05-07T13:06:11.587Z,99928.59
2023-05-07T13:08:44.340Z,99928.79
2023-05-07T13:11:13.619Z,99933.70
2023-05-07T13:13:42.177Z,99935.50
2023-05-07T13:16:12.352Z,99937.20
2023-05-07T13:18:41.959Z,99934.13
2023-05-07T13:21:11.129Z,99931.15
2023-05-07T13:23:39.723Z,99930.06
2023-05-07T13:26:22.489Z,99933.95
2023-05-07T13:28:55.490Z,99932.10
2023-05-07T13:31:23.738Z,99932.75
2023-05-07T13:33:51.813Z,99933.69
2023-05-07T13:36:19.801Z,99934.86
2023-05-07T13:38:47.726Z,99931.39
2023-05-07T13:41:15.881Z,99933.42
2023-05-07T13:43:43.891Z,99932.55
2023-05-07T13:46:12.400Z,99934.64
2023-05-07T13:48:40.570Z,99942.06
2023-05-07T13:51:08.570Z,99943.05
2023-05-07T13:53:36.662Z,99946.06
2023-05-07T13:56:05.672Z,99939.73
2023-05-07T13:58:33.980Z,99937.59
2023-05-07T14:01:02.040Z,99934.83
2023-05-07T14:03:32.886Z,99936.73
2023-05-07T14:06:02.511Z,99939.57
2023-05-07T14:08:31.885Z,99939.39
2023-05-07T14:11:01.078Z,99940.58
2023-05-07T14:13:29.103Z,99946.21
2023-05-07T14:15:57.438Z,99951.95
2023-05-07T14:18:25.745Z,99948.17
2023-05-07T14:20:53.836Z,99945.20
2023-05-07T14:23:26.606Z,99947.18
2023-05-07T14:25:54.681Z,99947.97
2023-05-07T14:28:22.750Z,99955.80
2023-05-07T14:30:50.946Z,99957.79
2023-05-07T14:33:19.018Z,99961.71
2023-05-07T14:35:49.849Z,99967.83
2023-05-07T14:38:17.937Z,99963.99
2023-05-07T14:40:45.954Z,99967.69
2023-05-07T14:43:13.904Z,99967.41
2023-05-07T14:45:42.064Z,99968.61
2023-05-07T14:48:13.506Z,99971.11
2023-05-07T14:50:43.979Z,99971.32
2023-05-07T14:53:11.899Z,99975.48
2023-05-07T14:55:39.923Z,99977.88
2023-05-07T14:58:07.988Z,99981.06
2023-05-07T15:00:36.081Z,99981.56
2023-05-07T15:03:09.306Z,99985.32
2023-05-07T15:05:38.692Z,99983.90
2023-05-07T15:08:07.057Z,99985.57
2023-05-07T15:10:42.036Z,99983.22
2023-05-07T15:13:15.337Z,99986.48
2023-05-07T15:15:45.402Z,99984.83
2023-05-07T15:18:13.311Z,99988.14
2023-05-07T15:20:42.329Z,99987.89
2023-05-07T15:23:15.039Z,99986.62
2023-05-07T15:25:44.999Z,99980.20
2023-05-07T15:28:12.907Z,99980.12
2023-05-07T15:30:40.917Z,99980.91
2023-05-07T15:33:08.854Z,99977.27
2023-05-07T15:35:36.875Z,99981.21
2023-05-07T15:38:06.460Z,99979.95
2023-05-07T15:40:36.387Z,99977.34
2023-05-07T15:43:04.599Z,99984.86
2023-05-07T15:45:32.783Z,99988.17
2023-05-07T15:48:00.724Z,99988.02
2023-05-07T15:50:29.661Z,99988.80
2023-05-07T15:52:58.340Z,99989.15
2023-05-07T15:55:26.301Z,99986.10
2023-05-07T15:57:55.177Z,99983.71
2023-05-07T16:00:23.320Z,99980.59
2023-05-07T16:02:51.685Z,99984.30
2023-05-07T16:05:19.919Z,99989.33
2023-05-07T16:07:48.662Z,99991.81
2023-05-07T16:10:16.779Z,99991.10
2023-05-07T16:12:44.789Z,99988.37
2023-05-07T16:15:13.044Z,99983.48
2023-05-07T16:17:41.421Z,99982.83
2023-05-07T16:20:12.094Z,99982.51
2023-05-07T16:22:39.994Z,99978.50
2023-05-07T16:25:08.463Z,99980.08
2023-05-07T16:27:36.404Z,99988.58
2023-05-07T16:30:04.742Z,99989.27
2023-05-07T16:32:32.819Z,99991.65
2023-05-07T16:35:00.771Z,99991.29
2023-05-07T16:37:29.166Z,99987.91
2023-05-07T16:39:57.251Z,99987.48
2023-05-07T16:42:25.251Z,99984.65
2023-05-07T16:44:53.099Z,99985.32
2023-05-07T16:47:21.664Z,99984.03
2023-05-07T16:49:50.580Z,99984.37
2023-05-07T16:52:18.719Z,99982.64
2023-05-07T16:54:47.008Z,99983.29
2023-05-07T16:57:15.016Z,99987.81
2023-05-07T16:59:42.979Z,99984.55
2023-05-07T17:02:10.925Z,99982.72
2023-05-07T17:04:42.707Z,99985.44
2023-05-07T17:07:11.076Z,99984.30
2023-05-07T17:09:39.091Z,99989.08
2023-05-07T17:12:07.193Z,99985.19
2023-05-07T17:14:35.057Z,99984.48
2023-05-07T17:17:03.000Z,99982.66
2023-05-07T17:19:31.333Z,99983.74
2023-05-07T17:21:59.215Z,99992.02
2023-05-07T17:24:27.062Z,99995.84
2023-05-07T17:26:54.992Z,100000.18
2023-05-07T17:29:22.921Z,100003.63
2023-05-07T17:31:50.953Z,100001.09
2023-05-07T17:34:18.853Z,100002.35
2023-05-07T17:36:46.880Z,100003.20
2023-05-07T17:39:14.902Z,100004.48
2023-05-07T17:41:42.756Z,100008.99
2023-05-07T17:44:10.769Z,100009.21
2023-05-07T17:46:38.886Z,100003.52
2023-05-07T17:49:06.945Z,100003.47
2023-05-07T17:51:49.982Z,100003.54
2023-05-07T17:54:21.869Z,100008.77
2023-05-07T17:56:49.840Z,100008.33
2023-05-07T17:59:17.737Z,100015.83
2023-05-07T18:01:45.861Z,100013.86
2023-05-07T18:04:13.978Z,100010.30
2023-05-07T18:06:42.248Z,100017.60
2023-05-07T18:09:10.222Z,100021.06
2023-05-07T18:11:38.279Z,100027.96
2023-05-07T18:14:06.667Z,100032.90
2023-05-07T18:16:36.685Z,100036.10
2023-05-07T18:19:04.770Z,100039.35
2023-05-07T18:21:32.877Z,100037.81
2023-05-07T18:24:00.773Z,100041.77
2023-05-07T18:26:28.720Z,100046.27
2023-05-07T18:28:56.645Z,100045.09
2023-05-07T18:31:24.576Z,100044.01
2023-05-07T18:33:53.000Z,100047.17
2023-05-07T18:36:20.916Z,100047.91
2023-05-07T18:38:48.849Z,100052.27
2023-05-07T18:41:16.790Z,100047.70
2023-05-07T18:43:44.641Z,100047.19
2023-05-07T18:46:12.574Z,100053.73
2023-05-07T18:48:40.662Z,100057.52
2023-05-07T18:51:12.656Z,100063.89
2023-05-07T18:53:40.831Z,100066.75
2023-05-07T18:56:08.894Z,100068.38
2023-05-07T18:58:36.908Z,100072.65
2023-05-07T19:01:08.500Z,100076.71
2023-05-07T19:03:36.953Z,100078.72
2023-05-07T19:06:06.144Z,100077.52
2023-05-07T19:08:34.183Z,100079.50
2023-05-07T19:11:03.267Z,100084.43
2023-05-07T19:13:31.373Z,100089.83
2023-05-07T19:15:59.832Z,100096.09
2023-05-07T19:18:29.730Z,100095.06
2023-05-07T19:20:57.695Z,100095.42
2023-05-07T19:23:26.073Z,100095.08
2023-05-07T19:25:54.128Z,100094.88
2023-05-07T19:28:22.086Z,100095.30
2023-05-07T19:30:52.235Z,100099.14
2023-05-07T19:33:20.317Z,100102.98
2023-05-07T19:35:48.220Z,100106.04
2023-05-07T19:38:16.222Z,100107.48
2023-05-07T19:40:44.158Z,100109.36
2023-05-07T19:43:12.059Z,100112.70
2023-05-07T19:45:42.933Z,100113.15
2023-05-07T19:48:14.786Z,100115.02
2023-05-07T19:50:48.143Z,100115.36
2023-05-07T19:53:16.079Z,100117.48
2023-05-07T19:55:43.973Z,100112.54
2023-05-07T19:58:12.152Z,100109.27
2023-05-07T20:00:41.540Z,100109.07
2023-05-07T20:03:18.204Z,100111.49
2023-05-07T20:05:47.627Z,100111.71
2023-05-07T20:08:15.513Z,100120.21
2023-05-07T20:10:43.380Z,100122.44
2023-05-07T20:13:12.103Z,100118.36
2023-05-07T20:15:40.305Z,100116.14
2023-05-07T20:18:08.569Z,100117.92
2023-05-07T20:20:36.587Z,100118.30
2023-05-07T20:23:04.436Z,100120.09
2023-05-07T20:25:32.433Z,100121.02
2023-05-07T20:28:00.631Z,100119.64
2023-05-07T20:30:28.599Z,100124.09
2023-05-07T20:32:57.649Z,100127.42
2023-05-07T20:35:25.722Z,100127.43
2023-05-07T20:37:53.625Z,100131.66
2023-05-07T20:40:21.545Z,100131.98
2023-05-07T20:42:49.594Z,100133.91
2023-05-07T20:45:17.618Z,100135.82
2023-05-07T20:47:45.543Z,100138.23
2023-05-07T20:50:13.847Z,100139.30
2023-05-07T20:52:42.590Z,100134.89
2023-05-07T20:55:10.551Z,100136.44
2023-05-07T20:57:38.471Z,100142.57
2023-05-07T21:00:08.186Z,100147.07
2023-05-07T21:02:37.079Z,100145.07
2023-05-07T21:05:05.472Z,100143.84
2023-05-07T21:07:33.439Z,100146.20
2023-05-07T21:10:01.422Z,100146.45
2023-05-07T21:12:29.263Z,100151.59
2023-05-07T21:14:57.563Z,100151.79
2023-05-07T21:17:25.515Z,100151.58
2023-05-07T21:19:53.457Z,100156.84
2023-05-07T21:22:21.473Z,100160.98
2023-05-07T21:24:49.413Z,100159.35
2023-05-07T21:27:17.494Z,100158.84
2023-05-07T21:29:46.080Z,100158.79
2023-05-07T21:32:14.068Z,100159.30
2023-05-07T21:34:41.989Z,100161.08
2023-05-07T21:37:09.861Z,100159.85
2023-05-07T21:39:37.875Z,100162.10
2023-05-07T21:42:05.843Z,100160.86
2023-05-07T21:44:33.748Z,100165.31
2023-05-07T21:47:01.673Z,100165.59
2023-05-07T21:49:29.669Z,100172.83
2023-05-07T21:51:57.659Z,100174.61
2023-05-07T21:54:25.698Z,100176.53
2023-05-07T21:56:53.633Z,100177.20
2023-05-07T21:59:21.585Z,100174.39
2023-05-07T22:01:49.623Z,100176.02
2023-05-07T22:04:17.516Z,100175.41
2023-05-07T22:06:45.432Z,100174.04
2023-05-07T22:09:13.986Z,100172.70
2023-05-07T22:11:41.906Z,100170.98
2023-05-07T22:14:09.888Z,100171.93
2023-05-07T22:16:37.862Z,100170.09
2023-05-07T22:19:06.431Z,100169.77
2023-05-07T22:21:34.374Z,100169.59
2023-05-07T22:24:02.426Z,100168.75
2023-05-07T22:26:30.348Z,100170.36
2023-05-07T22:28:58.233Z,100169.42
2023-05-07T22:31:26.401Z,100169.62
2023-05-07T22:33:54.317Z,100167.31
2023-05-07T22:36:22.256Z,100168.03
2023-05-07T22:38:50.284Z,100168.43
2023-05-07T22:41:18.279Z,100165.70
2023-05-07T22:43:46.206Z,100160.08
2023-05-07T22:46:14.164Z,100156.69
2023-05-07T22:48:42.353Z,100148.69
2023-05-07T22:51:14.661Z,100145.41
2023-05-07T22:53:42.651Z,100146.01
2023-05-07T22:56:10.630Z,100148.83
2023-05-07T22:58:38.525Z,100152.48
2023-05-07T23:01:17.507Z,100153.48
2023-05-07T23:03:45.665Z,100150.35
2023-05-07T23:06:13.649Z,100149.85
2023-05-07T23:08:41.536Z,100150.55
2023-05-07T23:11:09.508Z,100151.81
2023-05-07T23:13:37.596Z,100149.52
2023-05-07T23:16:05.775Z,100151.96
2023-05-07T23:18:33.702Z,100148.48
2023-05-07T23:21:01.775Z,100143.22
2023-05-07T23:23:33.715Z,100147.74
2023-05-07T23:26:01.635Z,100152.65
2023-05-07T23:28:29.569Z,100154.80
2023-05-07T23:30:57.572Z,100155.48
2023-05-07T23:33:25.539Z,100155.27
2023-05-07T23:36:04.013Z,100151.20
2023-05-07T23:38:32.475Z,100155.50
2023-05-07T23:41:00.667Z,100154.95
2023-05-07T23:43:28.743Z,100155.64
2023-05-07T23:45:56.617Z,100155.20
2023-05-07T23:48:24.533Z,100154.89
2023-05-07T23:50:52.537Z,100152.55
2023-05-07T23:53:20.423Z,100150.73
2023-05-07T23:55:48.389Z,100152.57
2023-05-07T23:58:16.317Z,100149.71
